createdAt,value
2019-02-25T00:03:25.988Z,7.75
2019-02-25T00:05:54.595Z,7.60
2019-02-25T00:08:23.267Z,7.87
2019-02-25T00:11:11.261Z,6.70
2019-02-25T00:16:09.471Z,6.30
2019-02-25T00:18:38.008Z,5.05
2019-02-25T00:21:06.659Z,5.75
2019-02-25T00:23:35.274Z,5.90
2019-02-25T00:26:03.910Z,6.05
2019-02-25T00:28:32.514Z,6.03
2019-02-25T00:31:01.058Z,6.83
2019-02-25T00:33:29.623Z,6.97
2019-02-25T00:35:58.171Z,7.25
2019-02-25T00:38:26.743Z,8.43
2019-02-25T00:40:55.291Z,8.55
2019-02-25T00:43:23.835Z,10.72
2019-02-25T00:45:52.419Z,12.33
2019-02-25T00:48:21.308Z,11.95
2019-02-25T00:50:49.875Z,10.32
2019-02-25T00:53:18.417Z,9.23
2019-02-25T00:55:47.028Z,10.75
2019-02-25T00:58:15.603Z,8.40
2019-02-25T01:00:44.223Z,6.85
2019-02-25T01:03:12.766Z,7.15
2019-02-25T01:05:41.400Z,6.30
2019-02-25T01:08:10.001Z,6.12
2019-02-25T01:10:38.855Z,6.55
2019-02-25T01:13:07.463Z,7.40
2019-02-25T01:15:36.175Z,5.70
2019-02-25T01:18:05.115Z,7.35
2019-02-25T01:20:33.779Z,7.30
2019-02-25T01:23:02.398Z,8.20
2019-02-25T01:25:30.943Z,7.60
2019-02-25T01:27:59.518Z,6.60
2019-02-25T01:30:28.074Z,6.58
2019-02-25T01:32:56.660Z,5.45
2019-02-25T01:35:37.924Z,5.95
2019-02-25T01:38:06.565Z,4.72
2019-02-25T01:40:35.175Z,5.05
2019-02-25T01:43:05.417Z,6.83
2019-02-25T01:45:34.043Z,5.78
2019-02-25T01:48:02.578Z,4.95
2019-02-25T01:50:31.167Z,4.87
2019-02-25T01:52:59.715Z,5.05
2019-02-25T01:55:28.335Z,4.53
2019-02-25T01:57:56.899Z,4.75
2019-02-25T02:00:25.439Z,5.05
2019-02-25T02:02:53.983Z,4.70
2019-02-25T02:05:24.464Z,5.53
2019-02-25T02:07:52.882Z,5.33
2019-02-25T02:10:21.480Z,5.30
2019-02-25T02:12:50.100Z,6.15
2019-02-25T02:15:20.847Z,5.22
2019-02-25T02:17:49.484Z,5.47
2019-02-25T02:20:18.572Z,5.42
2019-02-25T02:22:47.102Z,5.92
2019-02-25T02:25:15.775Z,5.62
2019-02-25T02:27:44.398Z,6.10
2019-02-25T02:30:33.831Z,5.83
2019-02-25T02:33:02.378Z,5.87
2019-02-25T02:35:30.976Z,6.28
2019-02-25T02:37:59.559Z,5.80
2019-02-25T02:40:28.107Z,6.10
2019-02-25T02:43:20.485Z,5.80
2019-02-25T02:45:57.915Z,7.00
2019-02-25T02:48:47.359Z,5.90
2019-02-25T02:51:15.901Z,5.92
2019-02-25T02:54:04.417Z,4.33
2019-02-25T02:56:32.959Z,6.22
2019-02-25T02:59:01.500Z,5.47
2019-02-25T03:01:30.082Z,5.83
2019-02-25T03:03:58.635Z,6.47
2019-02-25T03:06:27.219Z,6.50
2019-02-25T03:08:55.764Z,5.25
2019-02-25T03:11:24.311Z,5.75
2019-02-25T03:13:52.968Z,5.12
2019-02-25T03:16:21.514Z,6.33
2019-02-25T03:18:50.056Z,6.10
2019-02-25T03:21:18.643Z,6.40
2019-02-25T03:23:47.184Z,6.35
2019-02-25T03:26:15.787Z,5.92
2019-02-25T03:28:44.464Z,5.72
2019-02-25T03:31:13.030Z,7.35
2019-02-25T03:33:41.611Z,6.47
2019-02-25T03:36:10.173Z,5.17
2019-02-25T03:38:38.712Z,5.40
2019-02-25T03:41:07.359Z,6.28
2019-02-25T03:43:36.059Z,7.25
2019-02-25T03:46:04.707Z,6.17
2019-02-25T03:48:33.251Z,6.37
2019-02-25T03:51:21.154Z,6.42
2019-02-25T03:56:17.484Z,5.72
2019-02-25T03:58:46.196Z,5.55
2019-02-25T04:01:14.880Z,5.42
2019-02-25T04:03:43.575Z,6.17
2019-02-25T04:06:12.212Z,5.30
2019-02-25T04:08:40.908Z,5.78
2019-02-25T04:11:09.465Z,4.87
2019-02-25T04:13:38.017Z,5.75
2019-02-25T04:16:06.555Z,5.50
2019-02-25T04:18:36.175Z,4.97
2019-02-25T04:21:04.798Z,5.37
2019-02-25T04:23:33.363Z,5.37
2019-02-25T04:26:01.911Z,6.72
2019-02-25T04:28:30.491Z,6.78
2019-02-25T04:30:59.137Z,5.58
2019-02-25T04:33:27.692Z,7.15
2019-02-25T04:35:56.924Z,6.20
2019-02-25T04:38:45.008Z,6.50
2019-02-25T04:41:14.254Z,6.20
2019-02-25T04:43:42.794Z,5.65
2019-02-25T04:46:11.339Z,5.83
2019-02-25T04:48:39.885Z,5.65
2019-02-25T04:51:08.437Z,5.78
2019-02-25T04:53:37.058Z,5.70
2019-02-25T04:56:05.710Z,6.47
2019-02-25T04:58:53.638Z,5.47
2019-02-25T05:01:22.259Z,5.83
2019-02-25T05:03:50.827Z,6.87
2019-02-25T05:06:19.402Z,6.92
2019-02-25T05:08:47.953Z,5.50
2019-02-25T05:11:16.755Z,5.65
2019-02-25T05:13:45.329Z,6.10
2019-02-25T05:16:13.949Z,6.40
2019-02-25T05:19:01.856Z,6.35
2019-02-25T05:23:58.189Z,5.72
2019-02-25T05:26:26.722Z,6.03
2019-02-25T05:28:55.202Z,5.65
2019-02-25T05:31:23.775Z,7.37
2019-02-25T05:33:52.742Z,6.20
2019-02-25T05:36:21.287Z,5.65
2019-02-25T05:38:49.857Z,6.85
2019-02-25T05:41:18.503Z,6.78
2019-02-25T05:43:47.075Z,6.30
2019-02-25T05:46:15.626Z,6.40
2019-02-25T05:48:44.203Z,7.22
2019-02-25T05:51:12.759Z,7.25
2019-02-25T05:53:41.296Z,7.83
2019-02-25T05:56:10.159Z,7.50
2019-02-25T05:58:38.714Z,6.20
2019-02-25T06:01:07.631Z,7.33
2019-02-25T06:03:36.430Z,7.55
2019-02-25T06:06:05.001Z,6.03
2019-02-25T06:08:33.615Z,6.05
2019-02-25T06:11:03.788Z,6.05
2019-02-25T06:13:32.415Z,5.83
2019-02-25T06:16:01.028Z,6.05
2019-02-25T06:18:29.982Z,5.83
2019-02-25T06:20:58.517Z,6.60
2019-02-25T06:23:27.131Z,6.45
2019-02-25T06:25:55.823Z,6.75
2019-02-25T06:28:26.340Z,7.25
2019-02-25T06:30:54.574Z,5.95
2019-02-25T06:33:23.530Z,5.17
2019-02-25T06:35:52.095Z,6.05
2019-02-25T06:38:21.102Z,6.50
2019-02-25T06:40:49.642Z,5.42
2019-02-25T06:43:18.990Z,6.25
2019-02-25T06:45:47.534Z,6.78
2019-02-25T06:48:16.354Z,6.20
2019-02-25T06:50:44.830Z,6.78
2019-02-25T06:53:13.462Z,6.37
2019-02-25T06:55:42.007Z,7.33
2019-02-25T06:58:10.565Z,6.62
2019-02-25T07:00:39.252Z,7.37
2019-02-25T07:03:07.768Z,7.30
2019-02-25T07:05:38.060Z,6.72
2019-02-25T07:08:08.705Z,7.62
2019-02-25T07:13:33.211Z,7.12
2019-02-25T07:16:15.207Z,6.67
2019-02-25T07:18:54.298Z,7.47
2019-02-25T07:26:57.306Z,7.30
2019-02-25T07:29:27.424Z,6.33
2019-02-25T07:31:57.634Z,7.60
2019-02-25T07:34:43.079Z,14.75
2019-02-25T07:37:16.104Z,8.75
2019-02-25T07:42:47.692Z,6.75
2019-02-25T07:45:18.149Z,6.75
2019-02-25T07:47:54.528Z,7.53
2019-02-25T07:50:24.782Z,8.78
2019-02-25T07:52:54.970Z,7.08
2019-02-25T07:55:43.430Z,7.30
2019-02-25T07:58:16.326Z,6.75
2019-02-25T08:00:46.828Z,7.97
2019-02-25T08:03:19.776Z,6.47
2019-02-25T08:05:50.339Z,6.55
2019-02-25T08:08:26.441Z,7.00
2019-02-25T08:10:59.284Z,7.00
2019-02-25T08:13:44.560Z,6.47
2019-02-25T08:16:14.838Z,6.80
2019-02-25T08:18:45.024Z,6.53
2019-02-25T08:29:29.723Z,7.30
2019-02-25T08:37:57.567Z,6.50
2019-02-25T08:49:19.549Z,6.42
2019-02-25T08:51:48.220Z,6.83
2019-02-25T08:54:16.936Z,7.08
2019-02-25T08:56:45.549Z,7.35
2019-02-25T08:59:14.230Z,7.00
2019-02-25T09:01:42.883Z,7.20
2019-02-25T09:04:11.487Z,7.22
2019-02-25T09:06:40.029Z,7.50
2019-02-25T09:09:08.598Z,6.80
2019-02-25T09:11:37.289Z,6.70
2019-02-25T09:14:05.971Z,6.47
2019-02-25T09:16:34.623Z,6.87
2019-02-25T09:19:03.171Z,7.17
2019-02-25T09:21:32.241Z,7.28
2019-02-25T09:26:56.838Z,7.20
2019-02-25T09:29:25.396Z,6.75
2019-02-25T09:31:54.276Z,6.65
2019-02-25T09:34:25.688Z,7.53
2019-02-25T09:36:54.374Z,7.87
2019-02-25T09:39:23.087Z,7.60
2019-02-25T09:41:51.691Z,7.87
2019-02-25T09:44:20.318Z,7.62
2019-02-25T09:46:49.147Z,7.45
2019-02-25T09:49:17.689Z,8.08
2019-02-25T09:51:46.624Z,8.08
2019-02-25T09:54:15.510Z,7.75
2019-02-25T09:56:44.828Z,7.60
2019-02-25T09:59:13.697Z,7.30
2019-02-25T10:01:42.312Z,7.12
2019-02-25T10:04:11.284Z,7.78
2019-02-25T10:06:39.850Z,7.50
2019-02-25T10:09:08.497Z,7.37
2019-02-25T10:11:37.143Z,7.05
2019-02-25T10:14:05.680Z,7.40
2019-02-25T10:16:34.323Z,7.33
2019-02-25T10:19:03.180Z,8.25
2019-02-25T10:21:33.764Z,7.58
2019-02-25T10:24:02.699Z,7.90
2019-02-25T10:26:31.252Z,8.23
2019-02-25T10:28:59.959Z,7.50
2019-02-25T10:31:28.496Z,7.10
2019-02-25T10:33:57.034Z,7.60
2019-02-25T10:36:25.595Z,8.30
2019-02-25T10:38:54.150Z,7.90
2019-02-25T10:41:23.422Z,7.53
2019-02-25T10:43:53.276Z,7.60
2019-02-25T10:46:21.891Z,7.45
2019-02-25T10:48:54.200Z,7.45
2019-02-25T10:51:20.867Z,7.60
2019-02-25T10:53:51.426Z,7.30
2019-02-25T10:56:28.384Z,7.42
2019-02-25T10:58:57.644Z,6.67
2019-02-25T11:01:27.274Z,7.28
2019-02-25T11:03:55.839Z,7.30
2019-02-25T11:06:43.739Z,6.97
2019-02-25T11:09:22.762Z,7.35
2019-02-25T11:11:52.693Z,6.92
2019-02-25T11:14:21.731Z,6.42
2019-02-25T11:16:52.170Z,6.70
2019-02-25T11:19:22.432Z,6.90
2019-02-25T11:21:51.250Z,7.00
2019-02-25T11:24:21.141Z,6.15
2019-02-25T11:26:50.065Z,7.33
2019-02-25T11:29:18.891Z,6.97
2019-02-25T11:31:49.375Z,6.97
2019-02-25T11:34:17.762Z,6.40
2019-02-25T11:36:50.338Z,6.40
2019-02-25T11:39:18.951Z,5.97
2019-02-25T11:41:47.519Z,6.10
2019-02-25T11:44:35.403Z,6.40
2019-02-25T11:47:04.367Z,6.20
2019-02-25T11:49:32.902Z,6.58
2019-02-25T11:52:01.603Z,6.05
2019-02-25T11:54:30.178Z,5.65
2019-02-25T11:56:58.891Z,5.75
2019-02-25T11:59:27.787Z,5.37
2019-02-25T12:01:56.784Z,5.12
2019-02-25T12:04:25.347Z,5.53
2019-02-25T12:06:54.113Z,5.08
2019-02-25T12:09:22.727Z,4.62
2019-02-25T12:11:51.278Z,4.90
2019-02-25T12:14:19.934Z,4.97
2019-02-25T12:16:48.558Z,4.95
2019-02-25T12:19:18.164Z,4.97
2019-02-25T12:21:46.938Z,4.55
2019-02-25T12:24:15.718Z,4.55
2019-02-25T12:26:44.270Z,5.05
2019-02-25T12:29:12.832Z,4.75
2019-02-25T12:31:41.615Z,4.25
2019-02-25T12:34:10.263Z,4.28
2019-02-25T12:36:38.816Z,4.75
2019-02-25T12:39:07.938Z,4.50
2019-02-25T12:41:36.544Z,4.42
2019-02-25T12:44:05.259Z,4.85
2019-02-25T12:46:33.864Z,4.65
2019-02-25T12:49:02.471Z,4.67
2019-02-25T12:51:31.176Z,4.37
2019-02-25T12:53:59.713Z,4.47
2019-02-25T12:56:28.298Z,3.83
2019-02-25T12:58:56.976Z,4.20
2019-02-25T13:01:25.659Z,4.40
2019-02-25T13:03:54.298Z,4.08
2019-02-25T13:06:23.208Z,4.00
2019-02-25T13:08:51.744Z,4.53
2019-02-25T13:11:20.467Z,4.47
2019-02-25T13:13:49.070Z,4.60
2019-02-25T13:16:17.694Z,3.72
2019-02-25T13:18:46.329Z,3.85
2019-02-25T13:21:14.870Z,3.22
2019-02-25T13:23:43.515Z,3.52
2019-02-25T13:26:12.179Z,3.40
2019-02-25T13:28:41.058Z,3.85
2019-02-25T13:31:10.284Z,4.40
2019-02-25T13:33:39.443Z,4.00
2019-02-25T13:36:30.269Z,4.30
2019-02-25T13:38:58.806Z,5.05
2019-02-25T13:41:27.487Z,5.17
2019-02-25T13:43:56.424Z,5.47
2019-02-25T13:46:25.306Z,4.37
2019-02-25T13:48:53.958Z,4.15
2019-02-25T13:51:22.573Z,4.75
2019-02-25T13:53:51.254Z,4.60
2019-02-25T13:56:19.887Z,4.55
2019-02-25T13:58:50.195Z,3.90
2019-02-25T14:01:18.883Z,3.87
2019-02-25T14:03:47.914Z,3.95
2019-02-25T14:06:16.519Z,3.45
2019-02-25T14:08:45.319Z,3.40
2019-02-25T14:11:14.366Z,3.67
2019-02-25T14:13:45.107Z,3.30
2019-02-25T14:16:13.622Z,4.28
2019-02-25T14:18:42.475Z,4.00
2019-02-25T14:21:11.811Z,4.70
2019-02-25T14:23:40.815Z,3.95
2019-02-25T14:26:09.490Z,4.47
2019-02-25T14:28:39.646Z,5.35
2019-02-25T14:31:09.034Z,4.55
2019-02-25T14:33:38.043Z,4.92
2019-02-25T14:36:07.477Z,4.80
2019-02-25T14:38:37.207Z,4.75
2019-02-25T14:41:06.980Z,4.78
2019-02-25T14:43:41.743Z,4.53
2019-02-25T14:46:07.665Z,5.55
2019-02-25T14:48:37.519Z,4.50
2019-02-25T14:51:06.260Z,4.20
2019-02-25T14:53:34.940Z,4.53
2019-02-25T14:56:04.096Z,4.62
2019-02-25T14:58:35.545Z,4.42
2019-02-25T15:01:03.955Z,4.42
2019-02-25T15:03:32.689Z,4.35
2019-02-25T15:06:01.561Z,4.10
2019-02-25T15:08:30.713Z,4.05
2019-02-25T15:11:02.014Z,3.98
2019-02-25T15:13:30.359Z,4.58
2019-02-25T15:16:00.264Z,3.95
2019-02-25T15:18:31.160Z,4.00
2019-02-25T15:21:00.615Z,4.72
2019-02-25T15:23:30.596Z,4.70
2019-02-25T15:26:05.116Z,4.80
2019-02-25T15:28:29.859Z,4.22
2019-02-25T15:31:00.005Z,4.28
2019-02-25T15:33:30.009Z,4.55
2019-02-25T15:36:01.276Z,4.15
2019-02-25T15:38:31.107Z,4.25
2019-02-25T15:41:01.849Z,3.60
2019-02-25T15:43:32.451Z,3.27
2019-02-25T15:46:01.729Z,3.20
2019-02-25T15:48:30.947Z,3.62
2019-02-25T15:51:00.848Z,3.10
2019-02-25T15:53:29.593Z,3.70
2019-02-25T15:56:01.062Z,3.12
2019-02-25T15:58:28.876Z,3.00
2019-02-25T16:00:57.593Z,3.40
2019-02-25T16:03:26.875Z,3.00
2019-02-25T16:05:59.329Z,4.15
2019-02-25T16:08:26.898Z,3.60
2019-02-25T16:10:58.433Z,3.50
2019-02-25T16:13:27.358Z,3.55
2019-02-25T16:15:56.043Z,2.92
2019-02-25T16:18:27.477Z,3.87
2019-02-25T16:20:54.942Z,3.40
2019-02-25T16:23:25.784Z,4.00
2019-02-25T16:25:56.910Z,3.67
2019-02-25T16:28:25.954Z,3.92
2019-02-25T16:30:54.942Z,4.33
2019-02-25T16:33:24.146Z,3.92
2019-02-25T16:35:53.885Z,4.20
2019-02-25T16:38:24.908Z,4.33
2019-02-25T16:40:56.650Z,3.37
2019-02-25T16:43:23.225Z,3.65
2019-02-25T16:45:52.530Z,3.35
2019-02-25T16:48:24.227Z,3.95
2019-02-25T16:50:51.519Z,4.10
2019-02-25T16:53:20.347Z,3.60
2019-02-25T16:55:49.815Z,3.20
2019-02-25T16:58:19.668Z,3.62
2019-02-25T17:00:48.991Z,3.12
2019-02-25T17:03:17.872Z,3.62
2019-02-25T17:05:47.692Z,4.08
2019-02-25T17:08:18.526Z,3.30
2019-02-25T17:10:48.964Z,3.67
2019-02-25T17:13:17.519Z,3.33
2019-02-25T17:15:46.794Z,4.83
2019-02-25T17:18:16.030Z,3.72
2019-02-25T17:20:45.201Z,4.60
2019-02-25T17:23:34.522Z,4.53
2019-02-25T17:26:05.713Z,4.30
2019-02-25T17:28:34.049Z,4.05
2019-02-25T17:31:02.655Z,4.00
2019-02-25T17:33:32.680Z,3.55
2019-02-25T17:36:01.599Z,3.90
2019-02-25T17:38:30.203Z,4.62
2019-02-25T17:40:59.251Z,4.15
2019-02-25T17:43:29.348Z,3.95
2019-02-25T17:45:58.226Z,4.33
2019-02-25T17:48:27.487Z,4.35
2019-02-25T17:50:57.343Z,4.60
2019-02-25T17:53:28.308Z,7.35
2019-02-25T17:56:01.023Z,7.90
2019-02-25T17:58:29.630Z,6.10
2019-02-25T18:01:00.734Z,6.75
2019-02-25T18:03:29.230Z,6.90
2019-02-25T18:05:58.954Z,6.12
2019-02-25T18:08:29.988Z,6.15
2019-02-25T18:10:58.741Z,5.10
2019-02-25T18:13:28.131Z,5.75
2019-02-25T18:15:57.499Z,4.25
2019-02-25T18:18:27.994Z,4.80
2019-02-25T18:20:56.981Z,3.92
2019-02-25T18:23:26.638Z,4.92
2019-02-25T18:25:58.667Z,9.15
2019-02-25T18:28:26.062Z,7.45
2019-02-25T18:30:54.887Z,8.60
2019-02-25T18:33:25.227Z,7.28
2019-02-25T18:35:53.823Z,7.12
2019-02-25T18:38:23.274Z,7.97
2019-02-25T18:40:52.983Z,6.35
2019-02-25T18:43:22.077Z,7.55
2019-02-25T18:45:52.343Z,7.10
2019-02-25T18:48:22.798Z,7.97
2019-02-25T18:50:52.729Z,8.28
2019-02-25T18:53:22.567Z,7.85
2019-02-25T18:55:54.287Z,10.30
2019-02-25T18:58:22.992Z,7.50
2019-02-25T19:00:52.034Z,7.40
2019-02-25T19:03:21.282Z,9.23
2019-02-25T19:05:51.122Z,7.53
2019-02-25T19:08:22.718Z,7.20
2019-02-25T19:10:53.194Z,7.33
2019-02-25T19:13:23.333Z,6.67
2019-02-25T19:15:54.744Z,7.47
2019-02-25T19:18:23.448Z,6.08
2019-02-25T19:20:53.613Z,7.55
2019-02-25T19:23:23.308Z,8.20
2019-02-25T19:25:52.735Z,8.03
2019-02-25T19:28:23.863Z,10.40
2019-02-25T19:30:52.152Z,11.00
2019-02-25T19:33:22.339Z,8.68
2019-02-25T19:35:52.517Z,9.08
2019-02-25T19:38:22.809Z,8.30
2019-02-25T19:40:53.522Z,9.13
2019-02-25T19:43:22.638Z,9.10
2019-02-25T19:45:51.311Z,10.03
2019-02-25T19:48:21.698Z,10.80
2019-02-25T19:50:51.435Z,10.15
2019-02-25T19:53:20.722Z,19.02
2019-02-25T19:55:51.755Z,15.50
2019-02-25T20:01:23.301Z,12.60
2019-02-25T20:03:53.878Z,11.45
2019-02-25T20:06:23.607Z,9.10
2019-02-25T20:08:55.896Z,8.75
2019-02-25T20:11:25.870Z,10.98
2019-02-25T20:13:55.071Z,7.72
2019-02-25T20:16:27.042Z,9.25
2019-02-25T20:18:55.889Z,8.55
2019-02-25T20:21:26.669Z,8.98
2019-02-25T20:23:56.004Z,9.30
2019-02-25T20:26:26.735Z,8.80
2019-02-25T20:28:55.037Z,9.43
2019-02-25T20:31:23.672Z,10.48
2019-02-25T20:33:53.066Z,9.78
2019-02-25T20:36:24.199Z,9.95
2019-02-25T20:38:53.066Z,8.85
2019-02-25T20:41:22.263Z,11.78
2019-02-25T20:43:53.852Z,9.00
2019-02-25T20:46:23.838Z,12.35
2019-02-25T20:48:53.152Z,10.40
2019-02-25T20:51:22.792Z,11.43
2019-02-25T20:53:53.020Z,9.23
2019-02-25T20:56:22.797Z,9.28
2019-02-25T20:58:52.508Z,7.67
2019-02-25T21:01:21.124Z,7.97
2019-02-25T21:03:50.448Z,9.10
2019-02-25T21:06:21.240Z,6.95
2019-02-25T21:08:49.990Z,6.30
2019-02-25T21:11:18.603Z,7.35
2019-02-25T21:13:47.163Z,7.33
2019-02-25T21:19:04.644Z,6.60
2019-02-25T21:21:34.654Z,6.60
2019-02-25T21:24:06.060Z,7.08
2019-02-25T21:26:36.403Z,7.80
2019-02-25T21:29:06.795Z,7.85
2019-02-25T21:31:35.160Z,6.33
2019-02-25T21:34:04.290Z,6.30
2019-02-25T21:36:33.869Z,7.12
2019-02-25T21:39:04.111Z,5.65
2019-02-25T21:41:32.790Z,6.78
2019-02-25T21:44:01.334Z,7.67
2019-02-25T21:46:31.590Z,7.78
2019-02-25T21:49:03.458Z,8.78
2019-02-25T21:51:49.698Z,8.18
2019-02-25T21:56:46.118Z,6.95
2019-02-25T21:59:17.019Z,7.45
2019-02-25T22:01:45.224Z,6.62
2019-02-25T22:04:15.588Z,7.25
2019-02-25T22:06:47.068Z,8.78
2019-02-25T22:09:14.839Z,9.28
2019-02-25T22:11:43.473Z,9.45
2019-02-25T22:14:12.307Z,10.30
2019-02-25T22:16:44.332Z,10.88
2019-02-25T22:19:14.195Z,10.40
2019-02-25T22:21:43.323Z,8.73
2019-02-25T22:24:11.860Z,8.80
2019-02-25T22:26:40.566Z,8.40
2019-02-25T22:29:09.106Z,6.97
2019-02-25T22:31:39.427Z,5.83
2019-02-25T22:34:08.835Z,7.08
2019-02-25T22:36:41.560Z,7.33
2019-02-25T22:39:09.478Z,7.92
2019-02-25T22:41:40.099Z,8.03
2019-02-25T22:44:08.970Z,6.30
2019-02-25T22:46:39.695Z,7.55
2019-02-25T22:49:09.480Z,8.38
2019-02-25T22:51:38.153Z,8.58
2019-02-25T22:54:10.089Z,6.70
2019-02-25T22:56:37.377Z,7.15
2019-02-25T22:59:05.912Z,6.35
2019-02-25T23:01:36.822Z,7.20
2019-02-25T23:04:05.074Z,7.53
2019-02-25T23:06:33.955Z,7.70
2019-02-25T23:09:02.707Z,7.80
2019-02-25T23:11:31.631Z,7.45
2019-02-25T23:14:00.348Z,7.75
2019-02-25T23:16:28.950Z,7.75
2019-02-25T23:18:57.410Z,6.55
2019-02-25T23:21:28.593Z,5.65
2019-02-25T23:23:58.127Z,7.00
2019-02-25T23:26:27.154Z,5.67
2019-02-25T23:28:57.748Z,5.67
2019-02-25T23:31:29.789Z,5.58
2019-02-25T23:33:57.606Z,6.55
2019-02-25T23:36:26.613Z,6.60
2019-02-25T23:38:57.004Z,7.37
2019-02-25T23:41:25.495Z,6.22
2019-02-25T23:43:54.368Z,6.60
2019-02-25T23:46:25.269Z,6.90
2019-02-25T23:48:53.182Z,6.60
2019-02-25T23:51:42.038Z,6.78
2019-02-25T23:54:12.140Z,7.37
2019-02-25T23:56:43.927Z,6.22
2019-02-25T23:59:14.601Z,6.45
